Time;durP1;ratioP1;P1;durP2;ratioP2;P2;SDS_P1;SDS_P2;PMS_P1;PMS_P2;Temp;Humidity;BMP_temperature;BMP_pressure;BME280_temperature;BME280_humidity;BME280_pressure;Samples;Min_cycle;Max_cycle;Signal;HPM_P1;HPM_P2
2021/12/13 07:17:22;;;;;;;36.45;22.35;;;9.40;99.90;;;;;;5045777;28;20588;-68
2021/12/13 07:19:50;;;;;;;;;;;9.30;99.90;;;;;;5028438;28;20048;-66
2021/12/13 07:22:21;;;;;;;42.20;24.63;;;9.30;99.90;;;;;;5027721;28;19944;-66
2021/12/13 07:24:51;;;;;;;40.88;24.85;;;9.40;99.90;;;;;;5027845;28;20069;-66
2021/12/13 07:27:22;;;;;;;37.85;25.67;;;9.40;99.90;;;;;;5028050;28;20124;-67
2021/12/13 07:29:57;;;;;;;45.25;26.17;;;9.40;99.90;;;;;;5027872;28;20134;-66
2021/12/13 07:32:33;;;;;;;57.33;30.27;;;9.40;99.90;;;;;;5027740;28;20493;-66
2021/12/13 07:35:08;;;;;;;45.30;26.45;;;9.40;99.90;;;;;;5027808;28;20107;-67
2021/12/13 07:37:45;;;;;;;53.58;27.50;;;9.50;99.90;;;;;;5011227;28;20043;-66
2021/12/13 07:40:48;;;;;;;41.95;26.58;;;9.50;99.90;;;;;;5005800;28;20435;-67
2021/12/13 07:43:39;;;;;;;46.55;26.45;;;9.50;99.90;;;;;;5007822;28;20042;-67
2021/12/13 07:46:07;;;;;;;;;;;9.50;99.90;;;;;;5031746;28;20573;-67
2021/12/13 07:48:41;;;;;;;47.75;24.90;;;9.50;99.90;;;;;;5008009;28;19917;-67
2021/12/13 07:51:17;;;;;;;40.05;25.92;;;9.50;99.90;;;;;;5040720;28;20039;-67
2021/12/13 07:53:57;;;;;;;43.03;24.23;;;9.50;99.90;;;;;;5025366;28;20121;-67
2021/12/13 07:56:29;;;;;;;34.17;23.15;;;9.50;99.90;;;;;;5040731;28;20046;-67
2021/12/13 07:59:12;;;;;;;36.13;23.95;;;9.50;99.90;;;;;;4991319;28;20517;-67
2021/12/13 08:01:48;;;;;;;31.25;21.10;;;9.50;99.90;;;;;;4991294;28;20041;-67
2021/12/13 08:04:22;;;;;;;30.42;19.92;;;9.50;99.90;;;;;;5007789;28;20042;-67
2021/12/13 08:07:05;;;;;;;33.15;21.15;;;9.50;99.90;;;;;;5007476;28;20144;-67
2021/12/13 08:09:32;;;;;;;32.00;20.98;;;9.50;99.90;;;;;;4989045;28;20084;-66
2021/12/13 08:12:03;;;;;;;32.38;19.90;;;9.60;99.90;;;;;;5007459;28;20045;-69
2021/12/13 08:14:33;;;;;;;28.65;19.02;;;9.60;99.90;;;;;;5007446;28;20098;-69
2021/12/13 08:17:18;;;;;;;29.65;19.90;;;9.60;99.90;;;;;;4990834;28;20282;-69
2021/12/13 08:19:51;;;;;;;29.83;20.50;;;9.60;99.90;;;;;;5007336;28;20050;-69
2021/12/13 08:22:19;;;;;;;26.88;17.77;;;9.60;99.90;;;;;;4990909;28;20038;-69
2021/12/13 08:24:52;;;;;;;24.92;17.27;;;9.70;99.90;;;;;;4991300;28;20038;-69
2021/12/13 08:27:31;;;;;;;25.38;17.33;;;9.60;99.90;;;;;;5000419;28;20499;-69
2021/12/13 08:30:07;;;;;;;26.60;17.27;;;9.70;99.90;;;;;;4994171;28;20049;-69
2021/12/13 08:32:33;;;;;;;27.10;18.33;;;9.70;99.90;;;;;;4994458;28;20442;-69
2021/12/13 08:35:00;;;;;;;24.58;15.20;;;9.70;99.90;;;;;;5010354;28;20554;-68
2021/12/13 08:37:34;;;;;;;24.42;17.05;;;9.70;99.90;;;;;;4994006;28;20042;-69
2021/12/13 08:40:20;;;;;;;24.40;16.90;;;9.70;99.90;;;;;;5007921;28;20041;-69
2021/12/13 08:42:49;;;;;;;27.50;17.73;;;9.70;99.90;;;;;;5026893;28;20057;-69
2021/12/13 08:45:35;;;;;;;21.25;15.13;;;9.70;99.90;;;;;;4994289;28;20034;-68
2021/12/13 08:48:12;;;;;;;24.38;16.95;;;9.70;99.90;;;;;;4993797;28;20493;-69
2021/12/13 08:50:54;;;;;;;24.15;15.15;;;9.80;99.90;;;;;;5026731;28;20045;-68
2021/12/13 08:53:25;;;;;;;23.00;16.95;;;9.80;99.90;;;;;;4993780;28;20504;-68
2021/12/13 08:55:57;;;;;;;18.45;15.38;;;9.80;99.90;;;;;;4977499;28;20540;-68
2021/12/13 08:58:23;;;;;;;22.52;16.13;;;9.80;99.90;;;;;;4993690;28;20046;-68
2021/12/13 09:01:06;;;;;;;21.75;16.13;;;9.70;99.90;;;;;;4977443;28;20038;-68
2021/12/13 09:03:44;;;;;;;22.23;15.07;;;9.80;99.90;;;;;;5009786;28;20473;-68
2021/12/13 09:06:19;;;;;;;21.80;15.95;;;9.70;99.90;;;;;;5026362;28;20056;-68
2021/12/13 09:09:06;;;;;;;26.35;15.82;;;9.80;99.90;;;;;;4991438;28;20046;-68
2021/12/13 09:11:43;;;;;;;20.42;14.68;;;9.70;99.90;;;;;;5009828;28;20073;-68
2021/12/13 09:14:39;;;;;;;21.60;15.52;;;9.70;99.90;;;;;;5026149;28;20078;-68
2021/12/13 09:17:37;;;;;;;19.35;15.02;;;9.80;99.90;;;;;;4997632;28;20493;-68
2021/12/13 09:20:33;;;;;;;19.45;13.75;;;9.70;99.90;;;;;;5079265;28;20050;-68
2021/12/13 09:23:18;;;;;;;20.38;14.18;;;9.80;99.90;;;;;;4988700;28;20050;-68
2021/12/13 09:25:59;;;;;;;18.63;14.52;;;9.80;99.90;;;;;;4993497;28;20045;-68
2021/12/13 09:28:38;;;;;;;24.67;15.75;;;9.80;99.90;;;;;;4977034;28;20069;-68
2021/12/13 09:31:15;;;;;;;20.35;15.20;;;9.80;99.90;;;;;;5009724;28;20050;-68
2021/12/13 09:33:47;;;;;;;20.85;14.32;;;9.80;99.90;;;;;;5009410;28;20045;-68
2021/12/13 09:36:21;;;;;;;18.48;13.93;;;9.80;99.90;;;;;;4993000;28;20129;-68
2021/12/13 09:39:04;;;;;;;23.77;15.18;;;9.80;99.90;;;;;;4999209;28;20077;-67
2021/12/13 09:41:36;;;;;;;23.02;15.07;;;9.80;99.90;;;;;;5012593;28;20070;-67
2021/12/13 09:44:30;;;;;;;23.48;15.60;;;9.80;99.90;;;;;;5012639;28;20110;-68
2021/12/13 09:46:59;;;;;;;20.35;13.98;;;9.80;99.90;;;;;;5012565;28;20045;-67
2021/12/13 09:49:46;;;;;;;18.52;13.57;;;9.80;99.90;;;;;;5012463;28;20118;-67
2021/12/13 09:52:30;;;;;;;26.92;14.63;;;9.80;99.90;;;;;;5012463;28;20046;-68
2021/12/13 09:55:07;;;;;;;18.77;12.00;;;9.80;99.90;;;;;;4995996;28;20132;-67
2021/12/13 09:57:48;;;;;;;21.00;13.52;;;9.80;99.90;;;;;;4996154;28;20041;-68
2021/12/13 10:00:20;;;;;;;23.25;15.95;;;9.80;99.90;;;;;;5012530;28;20079;-68
2021/12/13 10:02:52;;;;;;;21.88;14.75;;;9.80;99.90;;;;;;5012386;28;20519;-67
2021/12/13 10:05:24;;;;;;;29.33;17.05;;;9.80;99.90;;;;;;5012394;28;20442;-67
2021/12/13 10:07:54;;;;;;;25.02;15.85;;;9.80;99.90;;;;;;5012229;28;20041;-67
2021/12/13 10:10:36;;;;;;;21.17;16.58;;;9.80;99.90;;;;;;5009788;28;20041;-67
2021/12/13 10:13:07;;;;;;;23.85;15.65;;;9.80;99.90;;;;;;5012431;28;20464;-68
2021/12/13 10:15:47;;;;;;;21.83;14.27;;;9.80;99.90;;;;;;5011990;28;20579;-67
2021/12/13 10:18:21;;;;;;;23.50;16.02;;;9.90;99.90;;;;;;4995764;28;20505;-68
2021/12/13 10:21:11;;;;;;;21.15;14.98;;;10.00;99.90;;;;;;5012070;28;20049;-68
2021/12/13 10:23:45;;;;;;;20.35;14.10;;;10.00;99.90;;;;;;5011853;28;20564;-67
2021/12/13 10:26:13;;;;;;;25.42;15.77;;;10.00;99.90;;;;;;5011939;28;20041;-68
2021/12/13 10:28:45;;;;;;;22.45;14.23;;;10.10;99.90;;;;;;5012129;28;20465;-68
2021/12/13 10:31:18;;;;;;;26.05;14.95;;;10.00;99.90;;;;;;5011962;28;20073;-69
2021/12/13 10:33:46;;;;;;;22.65;14.07;;;10.00;99.90;;;;;;5011816;28;20080;-68
2021/12/13 10:36:12;;;;;;;21.10;14.30;;;10.10;99.90;;;;;;5011740;28;20462;-68
2021/12/13 10:38:44;;;;;;;24.75;15.80;;;10.10;99.90;;;;;;4994318;28;20124;-68
2021/12/13 10:41:24;;;;;;;22.65;15.43;;;10.10;99.90;;;;;;5012064;28;20412;-68
2021/12/13 10:43:54;;;;;;;26.25;17.08;;;10.00;99.90;;;;;;5045090;28;20041;-67
2021/12/13 10:46:26;;;;;;;24.73;15.60;;;10.00;99.90;;;;;;5011697;28;20500;-68
2021/12/13 10:48:57;;;;;;;24.52;17.20;;;10.00;99.90;;;;;;5011555;28;20162;-68
2021/12/13 10:51:28;;;;;;;22.48;15.63;;;10.10;99.90;;;;;;5011377;28;20046;-69
2021/12/13 10:53:55;;;;;;;26.05;15.63;;;10.10;99.90;;;;;;5011417;28;20056;-69
2021/12/13 10:56:32;;;;;;;21.75;15.88;;;10.10;99.90;;;;;;4995308;28;20038;-68
2021/12/13 10:59:06;;;;;;;26.08;16.10;;;10.10;99.90;;;;;;5011676;28;20037;-68
2021/12/13 11:01:37;;;;;;;23.38;15.32;;;10.10;99.90;;;;;;5044491;28;20041;-69
2021/12/13 11:04:08;;;;;;;23.52;16.38;;;10.10;99.90;;;;;;5011370;28;20485;-68
2021/12/13 11:06:36;;;;;;;27.92;16.52;;;10.10;99.90;;;;;;5011418;28;20045;-68
2021/12/13 11:09:10;;;;;;;26.35;16.58;;;10.20;99.90;;;;;;5009025;28;20042;-69
2021/12/13 11:11:42;;;;;;;24.33;15.90;;;10.20;99.90;;;;;;5011587;28;20401;-68
2021/12/13 11:14:11;;;;;;;22.27;15.70;;;10.20;99.90;;;;;;5011509;28;20469;-69
2021/12/13 11:16:44;;;;;;;23.08;15.65;;;10.20;99.90;;;;;;4994928;28;20211;-68
2021/12/13 11:19:13;;;;;;;25.30;16.02;;;10.20;99.90;;;;;;5044452;28;20120;-69
2021/12/13 11:21:43;;;;;;;25.87;17.07;;;10.20;99.90;;;;;;5011195;28;20585;-69
2021/12/13 11:24:19;;;;;;;25.38;16.45;;;10.30;99.90;;;;;;5011343;28;20051;-68
2021/12/13 11:26:49;;;;;;;23.52;15.50;;;10.30;99.90;;;;;;5011127;28;20045;-69
2021/12/13 11:29:15;;;;;;;24.40;15.43;;;10.30;99.90;;;;;;5011103;28;20087;-69
2021/12/13 11:31:53;;;;;;;24.90;15.10;;;10.30;99.90;;;;;;5011297;28;20078;-69
2021/12/13 11:34:19;;;;;;;23.23;15.85;;;10.30;99.90;;;;;;4994937;28;20045;-69
2021/12/13 11:37:19;;;;;;;22.27;15.15;;;10.40;99.90;;;;;;5010978;28;20493;-69
2021/12/13 11:40:19;;;;;;;24.92;16.13;;;10.50;99.90;;;;;;4992240;28;20073;-69
2021/12/13 11:43:10;;;;;;;24.63;15.48;;;10.60;99.90;;;;;;4994828;28;20073;-69
2021/12/13 11:45:57;;;;;;;23.35;15.77;;;10.70;99.90;;;;;;4994518;28;20038;-69
2021/12/13 11:48:45;;;;;;;25.17;15.48;;;10.70;99.90;;;;;;5011147;28;20041;-69
2021/12/13 11:51:38;;;;;;;22.92;14.45;;;10.70;99.90;;;;;;4994659;28;20050;-69
2021/12/13 11:54:26;;;;;;;23.70;15.55;;;10.70;99.90;;;;;;5010753;28;20097;-69
2021/12/13 11:57:29;;;;;;;23.13;15.35;;;10.80;99.90;;;;;;5010783;28;20041;-69
2021/12/13 12:00:19;;;;;;;21.02;14.32;;;10.80;99.90;;;;;;4994370;28;20508;-69
2021/12/13 12:03:22;;;;;;;24.25;14.05;;;10.80;99.90;;;;;;5012646;28;20041;-69
2021/12/13 12:06:26;;;;;;;25.45;15.18;;;10.80;99.90;;;;;;4998039;28;20537;-69
2021/12/13 12:09:22;;;;;;;24.33;15.15;;;10.80;99.90;;;;;;4995368;28;20055;-69
2021/12/13 12:12:17;;;;;;;20.13;13.40;;;10.80;99.90;;;;;;5004152;27;20039;-69
2021/12/13 12:14:50;;;;;;;22.65;14.35;;;10.80;99.90;;;;;;5090715;27;20031;-69
2021/12/13 12:17:18;;;;;;;26.70;15.13;;;10.80;99.90;;;;;;5090411;27;20447;-69
2021/12/13 12:19:46;;;;;;;22.58;13.43;;;10.80;99.90;;;;;;5013573;28;20484;-69
2021/12/13 12:22:19;;;;;;;21.95;14.23;;;10.80;99.90;;;;;;5013801;28;20046;-69
2021/12/13 12:24:53;;;;;;;20.65;14.32;;;10.80;99.90;;;;;;5013615;28;20073;-69
2021/12/13 12:27:26;;;;;;;19.95;12.80;;;10.80;99.90;;;;;;5013779;28;20046;-69
2021/12/13 12:30:07;;;;;;;19.73;13.05;;;10.80;99.90;;;;;;5025569;27;20047;-69
2021/12/13 12:32:38;;;;;;;21.45;13.23;;;10.80;99.90;;;;;;5100264;27;20060;-69
2021/12/13 12:35:12;;;;;;;;;;;10.80;99.90;;;;;;5100580;27;20035;-69
2021/12/13 12:38:00;;;;;;;18.70;12.70;;;10.80;99.90;;;;;;5115143;27;19930;-69
2021/12/13 12:40:28;;;;;;;19.70;13.50;;;10.90;99.90;;;;;;5011222;28;20454;-68
2021/12/13 12:42:58;;;;;;;17.80;12.40;;;10.90;99.90;;;;;;4997457;28;20034;-68
2021/12/13 12:45:33;;;;;;;16.65;11.82;;;10.80;99.90;;;;;;5013330;28;20485;-69
2021/12/13 12:48:12;;;;;;;20.42;13.00;;;10.80;99.90;;;;;;4997124;28;20044;-69
2021/12/13 12:50:49;;;;;;;21.95;12.00;;;10.80;99.90;;;;;;5013406;28;20037;-69
2021/12/13 12:53:34;;;;;;;21.15;12.30;;;10.80;99.90;;;;;;5013644;28;20041;-69
2021/12/13 12:56:26;;;;;;;24.27;12.95;;;10.80;99.90;;;;;;4996959;28;20037;-69
2021/12/13 12:59:02;;;;;;;19.52;12.02;;;10.90;99.90;;;;;;4996854;28;20098;-68
2021/12/13 13:01:42;;;;;;;20.20;12.60;;;10.90;99.90;;;;;;4997050;28;20041;-69
2021/12/13 13:04:22;;;;;;;18.08;11.88;;;10.90;99.90;;;;;;5013199;28;20121;-69
2021/12/13 13:06:49;;;;;;;20.10;12.47;;;10.80;99.90;;;;;;5058545;27;20039;-69
2021/12/13 13:09:15;;;;;;;16.77;11.20;;;10.80;99.90;;;;;;5114444;27;20042;-68
2021/12/13 13:11:46;;;;;;;21.38;11.70;;;10.80;99.90;;;;;;5116363;27;20039;-69
2021/12/13 13:14:16;;;;;;;19.63;12.55;;;10.70;99.90;;;;;;5116431;27;20039;-69
2021/12/13 13:16:49;;;;;;;14.63;10.93;;;10.70;99.90;;;;;;5116112;27;20511;-69
2021/12/13 13:19:40;;;;;;;18.90;11.55;;;10.70;99.90;;;;;;5116385;27;20096;-69
2021/12/13 13:22:11;;;;;;;18.38;12.32;;;10.80;99.90;;;;;;5116565;27;20078;-68
2021/12/13 13:24:43;;;;;;;19.60;12.82;;;10.80;99.90;;;;;;5116264;27;20085;-69
2021/12/13 13:27:10;;;;;;;17.13;11.15;;;10.80;99.90;;;;;;5116363;27;20043;-69
2021/12/13 13:29:37;;;;;;;15.82;11.27;;;10.80;99.90;;;;;;5116376;27;20091;-68
2021/12/13 13:32:06;;;;;;;20.00;12.05;;;10.80;99.90;;;;;;5116265;27;20050;-68
2021/12/13 13:34:38;;;;;;;17.15;11.70;;;10.80;99.90;;;;;;5116179;27;20035;-68
2021/12/13 13:37:16;;;;;;;21.00;12.13;;;10.80;99.90;;;;;;5115873;27;20046;-68
2021/12/13 13:39:46;;;;;;;19.77;11.77;;;10.80;99.90;;;;;;5023168;28;20046;-69
2021/12/13 13:42:21;;;;;;;16.63;11.13;;;10.80;99.90;;;;;;5012813;28;20097;-68
2021/12/13 13:44:58;;;;;;;20.02;13.13;;;10.80;99.90;;;;;;5012659;28;20066;-68
2021/12/13 13:47:47;;;;;;;19.63;12.65;;;10.70;99.90;;;;;;5012291;28;20531;-68
2021/12/13 13:50:21;;;;;;;21.63;12.32;;;10.70;99.90;;;;;;4996338;28;20392;-68
2021/12/13 13:52:50;;;;;;;21.25;12.38;;;10.70;99.90;;;;;;4995930;28;20037;-68
2021/12/13 13:55:22;;;;;;;15.05;10.82;;;10.70;99.90;;;;;;5012525;28;20441;-68
2021/12/13 13:57:53;;;;;;;20.52;12.25;;;10.70;99.90;;;;;;5012290;28;20078;-68
2021/12/13 14:00:19;;;;;;;24.10;12.90;;;10.80;99.90;;;;;;5012326;28;20042;-68
2021/12/13 14:02:46;;;;;;;18.35;12.55;;;10.70;99.90;;;;;;5012139;28;20564;-69
2021/12/13 14:05:12;;;;;;;20.80;12.45;;;10.80;99.90;;;;;;4995919;28;20094;-68
2021/12/13 14:07:41;;;;;;;19.38;12.63;;;10.70;99.90;;;;;;5076328;27;20482;-69
2021/12/13 14:10:15;;;;;;;19.55;11.95;;;10.70;99.90;;;;;;5113258;27;20127;-68
2021/12/13 14:12:52;;;;;;;17.55;11.77;;;10.70;99.90;;;;;;5115608;27;20530;-68
2021/12/13 14:15:41;;;;;;;19.88;11.73;;;10.70;99.90;;;;;;5115376;27;20127;-68
2021/12/13 14:18:16;;;;;;;20.60;13.02;;;10.70;99.90;;;;;;5115518;27;20402;-68
2021/12/13 14:20:47;;;;;;;22.77;13.50;;;10.70;99.90;;;;;;5115215;27;20075;-68
2021/12/13 14:23:12;;;;;;;21.25;13.73;;;10.60;99.90;;;;;;5115402;27;20035;-68
2021/12/13 14:25:43;;;;;;;24.35;14.73;;;10.60;99.90;;;;;;5114748;27;20387;-69
2021/12/13 14:28:11;;;;;;;21.25;13.27;;;10.60;99.90;;;;;;5115261;27;20031;-69
2021/12/13 14:30:42;;;;;;;24.63;13.05;;;10.60;99.90;;;;;;5115109;27;20099;-68
2021/12/13 14:33:31;;;;;;;25.83;14.18;;;10.60;99.90;;;;;;5115184;27;20038;-68
2021/12/13 14:36:12;;;;;;;21.02;13.15;;;10.60;99.90;;;;;;5115111;27;20043;-68
2021/12/13 14:38:40;;;;;;;21.85;14.40;;;10.50;99.90;;;;;;5070718;28;20034;-68
2021/12/13 14:41:10;;;;;;;25.75;14.45;;;10.50;99.90;;;;;;5010099;28;20042;-68
2021/12/13 14:43:44;;;;;;;24.33;14.32;;;10.50;99.90;;;;;;5011516;28;20034;-68
2021/12/13 14:46:33;;;;;;;23.25;13.43;;;10.50;99.90;;;;;;5011626;28;20497;-67
2021/12/13 14:49:24;;;;;;;19.55;13.65;;;10.40;99.90;;;;;;4995191;28;20046;-68
2021/12/13 14:52:05;;;;;;;21.05;13.65;;;10.40;99.90;;;;;;4995222;28;20041;-68
2021/12/13 14:54:35;;;;;;;23.17;13.48;;;10.40;99.90;;;;;;5011590;28;20129;-68
2021/12/13 14:57:06;;;;;;;20.63;12.82;;;10.30;99.90;;;;;;4995092;28;20061;-67
2021/12/13 14:59:36;;;;;;;23.48;14.65;;;10.30;99.90;;;;;;4995020;28;20124;-68
2021/12/13 15:02:08;;;;;;;22.97;14.07;;;10.30;99.90;;;;;;5011756;28;20034;-68
2021/12/13 15:04:34;;;;;;;21.17;13.77;;;10.30;99.90;;;;;;5011638;28;20327;-68
2021/12/13 15:07:08;;;;;;;21.65;12.65;;;10.30;99.90;;;;;;5011606;28;20049;-68
2021/12/13 15:09:49;;;;;;;20.52;13.30;;;10.30;99.90;;;;;;4992775;28;20065;-68
2021/12/13 15:12:33;;;;;;;25.83;13.48;;;10.20;99.90;;;;;;4995361;28;20061;-68
2021/12/13 15:15:20;;;;;;;21.55;13.73;;;10.20;99.90;;;;;;4994838;28;20190;-69
2021/12/13 15:18:00;;;;;;;24.15;14.63;;;10.10;99.90;;;;;;5011306;28;20140;-69
2021/12/13 15:20:30;;;;;;;24.40;14.32;;;10.10;99.90;;;;;;5011477;28;20041;-68
2021/12/13 15:22:59;;;;;;;22.55;11.65;;;10.10;99.90;;;;;;5011206;28;20034;-68
2021/12/13 15:25:46;;;;;;;22.33;12.35;;;10.10;99.90;;;;;;5011168;28;20041;-67
2021/12/13 15:28:27;;;;;;;23.40;13.88;;;10.00;99.90;;;;;;5011353;28;20038;-68
2021/12/13 15:30:54;;;;;;;24.70;14.27;;;10.00;99.90;;;;;;5011068;28;20109;-68
2021/12/13 15:33:23;;;;;;;25.45;13.70;;;10.00;99.90;;;;;;4994757;28;20053;-68
2021/12/13 15:35:49;;;;;;;24.08;13.35;;;10.00;99.90;;;;;;5011399;28;20085;-68
2021/12/13 15:38:18;;;;;;;23.17;13.38;;;10.00;99.90;;;;;;5013310;28;20409;-69
2021/12/13 15:40:51;;;;;;;25.55;14.25;;;10.00;99.90;;;;;;5012481;28;20395;-68
2021/12/13 15:43:29;;;;;;;24.85;14.52;;;9.90;99.90;;;;;;5047608;28;20384;-68
2021/12/13 15:46:17;;;;;;;24.02;13.23;;;9.90;99.90;;;;;;5014480;28;20049;-69
2021/12/13 15:51:54;;;;;;;23.00;13.77;;;9.90;99.90;;;;;;5014322;28;20103;-68
2021/12/13 15:54:24;;;;;;;23.80;13.88;;;9.80;99.90;;;;;;4998262;28;20475;-68
2021/12/13 15:56:54;;;;;;;16.93;10.10;;;9.80;99.90;;;;;;5014222;28;20050;-68
2021/12/13 15:59:28;;;;;;;22.35;13.50;;;9.80;99.90;;;;;;5014571;28;20809;-68
2021/12/13 16:02:18;;;;;;;22.50;13.52;;;9.80;99.90;;;;;;5014257;28;20497;-69
2021/12/13 16:04:49;;;;;;;;;;;9.80;99.90;;;;;;4998206;28;20132;-68
2021/12/13 16:07:17;;;;;;;20.60;12.75;;;9.80;99.90;;;;;;4997937;28;19938;-68
2021/12/13 16:09:48;;;;;;;21.88;12.77;;;9.80;99.90;;;;;;5044907;28;20111;-68
2021/12/13 16:12:17;;;;;;;23.33;12.00;;;9.80;99.90;;;;;;5014090;28;20041;-67
2021/12/13 16:14:58;;;;;;;21.45;13.15;;;9.80;99.90;;;;;;5013983;28;20392;-69
2021/12/13 16:17:32;;;;;;;22.92;12.95;;;9.80;99.90;;;;;;5047399;28;20050;-68
2021/12/13 16:20:11;;;;;;;18.48;11.48;;;9.70;99.90;;;;;;5013819;28;20052;-68
2021/12/13 16:22:46;;;;;;;20.23;11.60;;;9.70;99.90;;;;;;5013991;28;20041;-68
2021/12/13 16:25:24;;;;;;;19.45;11.77;;;9.70;99.90;;;;;;5014052;28;20396;-68
2021/12/13 16:28:03;;;;;;;23.23;13.35;;;9.70;99.90;;;;;;5014028;28;20392;-68
2021/12/13 16:30:44;;;;;;;21.88;13.38;;;9.70;99.90;;;;;;4997398;28;20128;-68
2021/12/13 16:33:14;;;;;;;20.60;12.32;;;9.60;99.90;;;;;;5013690;28;20532;-68
2021/12/13 16:35:44;;;;;;;20.95;12.93;;;9.60;99.90;;;;;;5013519;28;20092;-68
2021/12/13 16:38:11;;;;;;;21.55;12.98;;;9.60;99.90;;;;;;4997526;28;20048;-69
2021/12/13 16:40:41;;;;;;;28.08;13.35;;;9.60;99.90;;;;;;5011520;28;20073;-69
2021/12/13 16:43:11;;;;;;;18.92;12.40;;;9.60;99.90;;;;;;5014538;28;20084;-68
2021/12/13 16:45:43;;;;;;;22.85;12.48;;;9.50;99.90;;;;;;5013479;28;20083;-69
2021/12/13 16:48:09;;;;;;;20.10;12.63;;;9.50;99.90;;;;;;5012958;28;20041;-69
2021/12/13 16:50:37;;;;;;;23.13;12.65;;;9.50;99.90;;;;;;4996994;28;20044;-69
2021/12/13 16:53:05;;;;;;;20.88;13.10;;;9.50;99.90;;;;;;5013677;28;20048;-69
2021/12/13 16:55:33;;;;;;;21.95;13.05;;;9.50;99.90;;;;;;5013270;28;20046;-69
2021/12/13 16:58:02;;;;;;;22.30;13.15;;;9.50;99.90;;;;;;4997182;28;20048;-68
2021/12/13 17:00:35;;;;;;;22.73;11.98;;;9.40;99.90;;;;;;5013147;28;20081;-68
2021/12/13 17:03:04;;;;;;;20.13;12.35;;;9.50;99.90;;;;;;4997061;28;20541;-68
2021/12/13 17:05:51;;;;;;;23.50;12.90;;;9.50;99.90;;;;;;5013437;28;20057;-68
2021/12/13 17:08:20;;;;;;;21.95;13.43;;;9.50;99.90;;;;;;5013205;28;20042;-69
2021/12/13 17:10:50;;;;;;;27.80;14.48;;;9.40;99.90;;;;;;5010760;28;20132;-69
2021/12/13 17:13:31;;;;;;;20.30;12.90;;;9.40;99.90;;;;;;5013435;28;20045;-69
2021/12/13 17:16:05;;;;;;;20.45;13.00;;;9.40;99.90;;;;;;4996646;28;20064;-67
2021/12/13 17:18:34;;;;;;;25.80;13.98;;;9.40;99.90;;;;;;5013445;28;20442;-69
2021/12/13 17:21:05;;;;;;;20.27;12.63;;;9.40;99.90;;;;;;5013138;28;20046;-69
2021/12/13 17:23:34;;;;;;;21.92;12.85;;;9.40;99.90;;;;;;5013184;28;20090;-69
2021/12/13 17:26:34;;;;;;;25.70;14.68;;;9.40;99.90;;;;;;5012816;28;20049;-69
2021/12/13 17:29:15;;;;;;;19.05;12.65;;;9.40;99.90;;;;;;5012825;28;20071;-67
2021/12/13 17:31:43;;;;;;;19.75;12.68;;;9.40;99.90;;;;;;5013096;28;20136;-69
2021/12/13 17:34:31;;;;;;;18.77;12.50;;;9.40;99.90;;;;;;4996436;28;20060;-69
2021/12/13 17:37:02;;;;;;;26.13;14.45;;;9.30;99.90;;;;;;5012739;28;20038;-69
2021/12/13 17:39:29;;;;;;;22.35;13.63;;;9.30;99.90;;;;;;5010499;28;20033;-69
2021/12/13 17:41:58;;;;;;;21.60;12.93;;;9.30;99.90;;;;;;5046063;28;20073;-69
2021/12/13 17:44:26;;;;;;;20.90;13.30;;;9.30;99.90;;;;;;4996155;28;20102;-69
2021/12/13 17:46:53;;;;;;;22.55;14.63;;;9.30;99.90;;;;;;5012934;28;20053;-69
2021/12/13 17:49:44;;;;;;;21.52;13.95;;;9.30;99.90;;;;;;5045809;28;20386;-69
2021/12/13 17:52:11;;;;;;;21.75;13.43;;;9.30;99.90;;;;;;5045838;28;20151;-68
2021/12/13 17:54:54;;;;;;;21.85;14.20;;;9.30;99.90;;;;;;4996489;28;20106;-69
2021/12/13 17:57:39;;;;;;;20.38;12.77;;;9.20;99.90;;;;;;5012374;28;20064;-69
2021/12/13 18:00:29;;;;;;;20.83;13.15;;;9.30;99.90;;;;;;5011679;28;20463;-69
2021/12/13 18:03:33;;;;;;;22.63;13.55;;;9.20;99.90;;;;;;5012352;28;20041;-69
2021/12/13 18:06:29;;;;;;;21.77;12.82;;;9.30;99.90;;;;;;5011965;28;20475;-69
2021/12/13 18:09:42;;;;;;;19.33;13.50;;;9.20;99.90;;;;;;5010060;28;20471;-68
2021/12/13 18:12:14;;;;;;;18.15;10.93;;;9.20;99.90;;;;;;4927398;28;20079;-67
2021/12/13 18:14:40;;;;;;;20.38;11.65;;;9.20;99.90;;;;;;5009545;28;20053;-68
2021/12/13 18:17:15;;;;;;;20.20;12.57;;;9.20;99.90;;;;;;4970283;28;20153;-67
2021/12/13 18:19:46;;;;;;;19.67;12.23;;;9.30;99.90;;;;;;5071245;28;20679;-68
2021/12/13 18:22:34;;;;;;;19.20;11.57;;;9.30;99.90;;;;;;4987874;28;20042;-68
2021/12/13 18:25:09;;;;;;;18.60;12.07;;;9.30;99.90;;;;;;4988722;28;20371;-69
2021/12/13 18:27:41;;;;;;;19.35;12.77;;;9.30;99.90;;;;;;4971470;28;20546;-68
2021/12/13 18:30:31;;;;;;;20.33;13.30;;;9.20;99.90;;;;;;5029045;28;20046;-68
2021/12/13 18:33:00;;;;;;;19.95;12.18;;;9.20;99.90;;;;;;5022845;28;20478;-69
2021/12/13 18:35:35;;;;;;;20.83;12.95;;;9.20;99.90;;;;;;4990107;28;20056;-68
2021/12/13 18:38:21;;;;;;;22.73;13.07;;;9.20;99.90;;;;;;4973763;28;20076;-70
2021/12/13 18:40:51;;;;;;;21.58;13.73;;;9.20;99.90;;;;;;4987908;28;20064;-68
2021/12/13 18:43:23;;;;;;;17.88;10.68;;;9.20;99.90;;;;;;4973706;28;20042;-67
2021/12/13 18:45:53;;;;;;;20.15;13.30;;;9.20;99.90;;;;;;4989760;28;20516;-67
2021/12/13 18:48:24;;;;;;;;;;;9.20;99.90;;;;;;4990262;28;20050;-69
2021/12/13 18:51:03;;;;;;;20.85;12.75;;;9.20;99.90;;;;;;4989571;28;19928;-68
2021/12/13 18:53:33;;;;;;;17.73;12.35;;;9.20;99.90;;;;;;4973551;28;20134;-69
2021/12/13 18:56:11;;;;;;;17.17;12.20;;;9.20;99.90;;;;;;4989768;28;20139;-68
2021/12/13 18:58:44;;;;;;;18.55;12.65;;;9.20;99.90;;;;;;4989927;28;20082;-68
2021/12/13 19:01:22;;;;;;;19.30;12.65;;;9.20;99.90;;;;;;4989860;28;20168;-68
2021/12/13 19:04:29;;;;;;;18.95;12.50;;;9.20;99.90;;;;;;4989756;28;20132;-67
2021/12/13 19:06:59;;;;;;;18.77;12.10;;;9.20;99.90;;;;;;4987730;28;20096;-68
2021/12/13 19:09:36;;;;;;;20.48;12.52;;;9.20;99.90;;;;;;4971331;28;20042;-69
2021/12/13 19:12:13;;;;;;;22.27;13.00;;;9.20;99.90;;;;;;4989163;28;20156;-68
2021/12/13 19:15:22;;;;;;;17.95;11.40;;;9.20;99.90;;;;;;4989292;28;20050;-66
2021/12/13 19:17:59;;;;;;;19.77;12.43;;;9.20;99.90;;;;;;5012090;28;20106;-67
2021/12/13 19:20:39;;;;;;;18.33;10.98;;;9.10;99.90;;;;;;5012075;28;20102;-68
2021/12/13 19:23:22;;;;;;;22.13;13.30;;;9.20;99.90;;;;;;5030026;28;20366;-68
2021/12/13 19:25:53;;;;;;;19.58;14.02;;;9.20;99.90;;;;;;5012134;28;20480;-70
2021/12/13 19:28:23;;;;;;;22.52;13.70;;;9.10;99.90;;;;;;5012301;28;20045;-67
2021/12/13 19:31:02;;;;;;;21.63;11.82;;;9.10;99.90;;;;;;5012211;28;20401;-67
2021/12/13 19:33:37;;;;;;;25.00;13.88;;;9.10;99.90;;;;;;5012379;28;20049;-69
2021/12/13 19:36:12;;;;;;;23.35;14.00;;;9.10;99.90;;;;;;5012098;28;20041;-67
2021/12/13 19:38:57;;;;;;;22.10;13.50;;;9.10;99.90;;;;;;5011942;28;20045;-67
2021/12/13 19:41:29;;;;;;;18.98;14.43;;;9.10;99.90;;;;;;5011875;28;20037;-70
2021/12/13 19:44:01;;;;;;;18.42;12.57;;;9.10;99.90;;;;;;5012653;28;20434;-69
2021/12/13 19:47:07;;;;;;;19.88;13.57;;;9.10;99.90;;;;;;5045790;28;20041;-69
2021/12/13 19:49:59;;;;;;;19.88;12.75;;;9.00;99.90;;;;;;5016980;28;20049;-70
2021/12/13 19:52:35;;;;;;;21.27;13.40;;;9.00;99.90;;;;;;5013862;28;20041;-71
2021/12/13 19:55:13;;;;;;;20.50;13.57;;;9.00;99.90;;;;;;4996057;28;20077;-70
2021/12/13 19:57:48;;;;;;;22.08;13.68;;;9.00;99.90;;;;;;5045975;28;20048;-69
2021/12/13 20:00:25;;;;;;;17.67;13.30;;;9.00;99.90;;;;;;4997975;28;20046;-69
2021/12/13 20:02:56;;;;;;;17.92;12.60;;;9.00;99.90;;;;;;5011556;28;20049;-68
2021/12/13 20:05:29;;;;;;;17.08;11.43;;;9.00;99.90;;;;;;5044700;28;20045;-69
2021/12/13 20:07:59;;;;;;;17.65;12.85;;;9.00;99.90;;;;;;5012265;28;20442;-68
2021/12/13 20:10:31;;;;;;;18.30;12.60;;;9.00;99.90;;;;;;5009909;28;20037;-70
2021/12/13 20:13:26;;;;;;;18.90;12.63;;;9.00;99.90;;;;;;5044726;28;20511;-71
2021/12/13 20:16:13;;;;;;;20.17;12.32;;;9.00;99.90;;;;;;5012792;28;20079;-72
2021/12/13 20:18:52;;;;;;;21.95;12.13;;;9.00;99.90;;;;;;5012247;28;20049;-73
2021/12/13 20:21:35;;;;;;;19.13;13.68;;;9.00;99.90;;;;;;5011539;28;20143;-67
2021/12/13 20:24:06;;;;;;;16.52;11.70;;;9.00;99.90;;;;;;5013403;28;20186;-68
2021/12/13 20:26:40;;;;;;;15.90;10.95;;;9.00;99.90;;;;;;5014922;28;20041;-68
2021/12/13 20:29:09;;;;;;;20.58;14.15;;;9.00;99.90;;;;;;5014600;28;20057;-67
2021/12/13 20:31:47;;;;;;;19.45;11.70;;;9.00;99.90;;;;;;4998719;28;20495;-67
2021/12/13 20:34:19;;;;;;;20.90;12.32;;;9.00;99.90;;;;;;5014857;28;20053;-67
2021/12/13 20:37:03;;;;;;;16.17;12.27;;;9.00;99.90;;;;;;5047695;28;20405;-67
2021/12/13 20:39:39;;;;;;;17.30;11.65;;;9.00;99.90;;;;;;4996071;28;20053;-67
2021/12/13 20:42:29;;;;;;;16.58;11.20;;;9.00;99.90;;;;;;5014471;28;20511;-67